sensor_id;sensor_type;location;lat;lon;timestamp;P1;durP1;ratioP1;P2;durP2;ratioP2
18174;SDS011;9212;50.894;16.714;2023-07-13T00:02:21;11.70;;;5.60;;
18174;SDS011;9212;50.894;16.714;2023-07-13T00:04:49;6.90;;;4.63;;
18174;SDS011;9212;50.894;16.714;2023-07-13T00:07:17;15.13;;;5.65;;
18174;SDS011;9212;50.894;16.714;2023-07-13T00:09:45;8.10;;;5.40;;
18174;SDS011;9212;50.894;16.714;2023-07-13T00:14:59;8.10;;;4.90;;
18174;SDS011;9212;50.894;16.714;2023-07-13T00:17:27;7.93;;;4.50;;
18174;SDS011;9212;50.894;16.714;2023-07-13T00:19:54;10.70;;;5.40;;
18174;SDS011;9212;50.894;16.714;2023-07-13T00:22:22;7.35;;;4.82;;
18174;SDS011;9212;50.894;16.714;2023-07-13T00:24:50;8.13;;;5.45;;
18174;SDS011;9212;50.894;16.714;2023-07-13T00:27:18;6.95;;;5.10;;
18174;SDS011;9212;50.894;16.714;2023-07-13T00:29:45;12.93;;;5.38;;
18174;SDS011;9212;50.894;16.714;2023-07-13T00:32:14;6.38;;;4.55;;
18174;SDS011;9212;50.894;16.714;2023-07-13T00:34:41;12.52;;;5.15;;
18174;SDS011;9212;50.894;16.714;2023-07-13T00:37:08;11.23;;;5.20;;
18174;SDS011;9212;50.894;16.714;2023-07-13T00:39:36;15.00;;;5.90;;
18174;SDS011;9212;50.894;16.714;2023-07-13T00:42:04;7.25;;;4.88;;
18174;SDS011;9212;50.894;16.714;2023-07-13T00:44:32;6.90;;;4.75;;
18174;SDS011;9212;50.894;16.714;2023-07-13T00:46:59;8.73;;;4.88;;
18174;SDS011;9212;50.894;16.714;2023-07-13T00:49:29;8.00;;;5.20;;
18174;SDS011;9212;50.894;16.714;2023-07-13T00:51:57;8.38;;;5.13;;
18174;SDS011;9212;50.894;16.714;2023-07-13T00:54:28;8.63;;;5.47;;
18174;SDS011;9212;50.894;16.714;2023-07-13T00:56:57;7.43;;;4.70;;
18174;SDS011;9212;50.894;16.714;2023-07-13T00:59:25;7.30;;;4.80;;
18174;SDS011;9212;50.894;16.714;2023-07-13T01:01:53;9.13;;;4.70;;
18174;SDS011;9212;50.894;16.714;2023-07-13T01:04:20;6.53;;;4.63;;
18174;SDS011;9212;50.894;16.714;2023-07-13T01:06:49;8.45;;;4.90;;
18174;SDS011;9212;50.894;16.714;2023-07-13T01:09:16;9.25;;;5.18;;
18174;SDS011;9212;50.894;16.714;2023-07-13T01:11:44;12.73;;;4.80;;
18174;SDS011;9212;50.894;16.714;2023-07-13T01:14:11;6.30;;;4.65;;
18174;SDS011;9212;50.894;16.714;2023-07-13T01:16:38;9.20;;;5.28;;
18174;SDS011;9212;50.894;16.714;2023-07-13T01:19:12;11.25;;;5.82;;
18174;SDS011;9212;50.894;16.714;2023-07-13T01:21:42;8.25;;;4.82;;
18174;SDS011;9212;50.894;16.714;2023-07-13T01:24:09;11.27;;;5.18;;
18174;SDS011;9212;50.894;16.714;2023-07-13T01:26:36;7.45;;;4.78;;
18174;SDS011;9212;50.894;16.714;2023-07-13T01:29:04;9.88;;;4.82;;
18174;SDS011;9212;50.894;16.714;2023-07-13T01:31:32;13.48;;;5.18;;
18174;SDS011;9212;50.894;16.714;2023-07-13T01:34:00;8.40;;;5.13;;
18174;SDS011;9212;50.894;16.714;2023-07-13T01:36:27;9.00;;;5.32;;
18174;SDS011;9212;50.894;16.714;2023-07-13T01:38:55;11.48;;;5.07;;
18174;SDS011;9212;50.894;16.714;2023-07-13T01:41:23;10.15;;;4.55;;
18174;SDS011;9212;50.894;16.714;2023-07-13T01:43:50;7.10;;;5.03;;
18174;SDS011;9212;50.894;16.714;2023-07-13T01:46:17;10.98;;;5.38;;
18174;SDS011;9212;50.894;16.714;2023-07-13T01:48:44;9.48;;;5.15;;
18174;SDS011;9212;50.894;16.714;2023-07-13T01:51:11;11.68;;;4.90;;
18174;SDS011;9212;50.894;16.714;2023-07-13T01:53:39;9.48;;;5.32;;
18174;SDS011;9212;50.894;16.714;2023-07-13T01:56:07;7.40;;;5.60;;
18174;SDS011;9212;50.894;16.714;2023-07-13T01:58:35;11.75;;;4.78;;
18174;SDS011;9212;50.894;16.714;2023-07-13T02:01:02;8.20;;;5.05;;
18174;SDS011;9212;50.894;16.714;2023-07-13T02:03:29;8.90;;;4.93;;
18174;SDS011;9212;50.894;16.714;2023-07-13T02:05:56;11.48;;;5.65;;
18174;SDS011;9212;50.894;16.714;2023-07-13T02:08:23;9.88;;;5.68;;
18174;SDS011;9212;50.894;16.714;2023-07-13T02:10:51;15.95;;;5.65;;
18174;SDS011;9212;50.894;16.714;2023-07-13T02:13:19;6.43;;;4.90;;
18174;SDS011;9212;50.894;16.714;2023-07-13T02:15:49;8.68;;;5.32;;
18174;SDS011;9212;50.894;16.714;2023-07-13T02:18:16;10.80;;;5.35;;
18174;SDS011;9212;50.894;16.714;2023-07-13T02:20:44;11.35;;;5.10;;
18174;SDS011;9212;50.894;16.714;2023-07-13T02:23:11;7.20;;;5.72;;
18174;SDS011;9212;50.894;16.714;2023-07-13T02:25:38;12.13;;;5.63;;
18174;SDS011;9212;50.894;16.714;2023-07-13T02:28:06;7.85;;;5.38;;
18174;SDS011;9212;50.894;16.714;2023-07-13T02:30:35;10.98;;;5.75;;
18174;SDS011;9212;50.894;16.714;2023-07-13T02:33:03;16.08;;;5.43;;
18174;SDS011;9212;50.894;16.714;2023-07-13T02:35:30;14.98;;;5.45;;
18174;SDS011;9212;50.894;16.714;2023-07-13T02:37:58;11.80;;;5.75;;
18174;SDS011;9212;50.894;16.714;2023-07-13T02:40:25;11.52;;;6.63;;
18174;SDS011;9212;50.894;16.714;2023-07-13T02:42:52;11.70;;;5.57;;
18174;SDS011;9212;50.894;16.714;2023-07-13T02:45:19;11.02;;;6.00;;
18174;SDS011;9212;50.894;16.714;2023-07-13T02:47:48;11.82;;;6.30;;
18174;SDS011;9212;50.894;16.714;2023-07-13T02:50:15;9.55;;;5.60;;
18174;SDS011;9212;50.894;16.714;2023-07-13T02:52:42;9.80;;;5.45;;
18174;SDS011;9212;50.894;16.714;2023-07-13T02:55:10;9.73;;;5.90;;
18174;SDS011;9212;50.894;16.714;2023-07-13T02:57:37;14.07;;;5.40;;
18174;SDS011;9212;50.894;16.714;2023-07-13T03:00:04;10.52;;;5.80;;
18174;SDS011;9212;50.894;16.714;2023-07-13T03:02:33;8.77;;;5.78;;
18174;SDS011;9212;50.894;16.714;2023-07-13T03:05:02;15.82;;;6.00;;
18174;SDS011;9212;50.894;16.714;2023-07-13T03:07:30;10.40;;;5.57;;
18174;SDS011;9212;50.894;16.714;2023-07-13T03:09:58;11.80;;;6.00;;
18174;SDS011;9212;50.894;16.714;2023-07-13T03:12:25;10.27;;;5.55;;
18174;SDS011;9212;50.894;16.714;2023-07-13T03:14:52;9.00;;;5.70;;
18174;SDS011;9212;50.894;16.714;2023-07-13T03:17:19;10.50;;;5.75;;
18174;SDS011;9212;50.894;16.714;2023-07-13T03:19:47;7.32;;;5.82;;
18174;SDS011;9212;50.894;16.714;2023-07-13T03:22:17;6.97;;;5.72;;
18174;SDS011;9212;50.894;16.714;2023-07-13T03:24:45;8.85;;;5.25;;
18174;SDS011;9212;50.894;16.714;2023-07-13T03:27:13;6.07;;;4.68;;
18174;SDS011;9212;50.894;16.714;2023-07-13T03:29:40;9.55;;;5.78;;
18174;SDS011;9212;50.894;16.714;2023-07-13T03:32:08;8.85;;;4.90;;
18174;SDS011;9212;50.894;16.714;2023-07-13T03:34:35;9.43;;;5.07;;
18174;SDS011;9212;50.894;16.714;2023-07-13T03:37:02;7.32;;;5.35;;
18174;SDS011;9212;50.894;16.714;2023-07-13T03:39:32;8.95;;;5.53;;
18174;SDS011;9212;50.894;16.714;2023-07-13T03:41:59;7.38;;;5.35;;
18174;SDS011;9212;50.894;16.714;2023-07-13T03:44:26;10.40;;;5.43;;
18174;SDS011;9212;50.894;16.714;2023-07-13T03:46:54;10.85;;;5.63;;
18174;SDS011;9212;50.894;16.714;2023-07-13T03:49:21;5.85;;;4.45;;
18174;SDS011;9212;50.894;16.714;2023-07-13T03:51:48;9.43;;;5.15;;
18174;SDS011;9212;50.894;16.714;2023-07-13T03:54:15;15.43;;;5.82;;
18174;SDS011;9212;50.894;16.714;2023-07-13T03:56:44;6.85;;;5.45;;
18174;SDS011;9212;50.894;16.714;2023-07-13T03:59:11;13.88;;;6.15;;
18174;SDS011;9212;50.894;16.714;2023-07-13T04:01:39;11.50;;;5.80;;
18174;SDS011;9212;50.894;16.714;2023-07-13T04:04:06;10.63;;;4.78;;
18174;SDS011;9212;50.894;16.714;2023-07-13T04:06:33;8.10;;;4.03;;
18174;SDS011;9212;50.894;16.714;2023-07-13T04:09:01;4.70;;;3.22;;
18174;SDS011;9212;50.894;16.714;2023-07-13T04:11:31;7.80;;;3.25;;
18174;SDS011;9212;50.894;16.714;2023-07-13T04:14:00;2.92;;;2.70;;
18174;SDS011;9212;50.894;16.714;2023-07-13T04:16:27;5.63;;;2.83;;
18174;SDS011;9212;50.894;16.714;2023-07-13T04:18:55;9.85;;;3.65;;
18174;SDS011;9212;50.894;16.714;2023-07-13T04:21:24;16.15;;;3.97;;
18174;SDS011;9212;50.894;16.714;2023-07-13T04:23:52;17.65;;;4.18;;
18174;SDS011;9212;50.894;16.714;2023-07-13T04:26:19;10.55;;;4.00;;
18174;SDS011;9212;50.894;16.714;2023-07-13T04:28:47;12.38;;;4.25;;
18174;SDS011;9212;50.894;16.714;2023-07-13T04:31:16;10.73;;;3.95;;
18174;SDS011;9212;50.894;16.714;2023-07-13T04:33:43;8.70;;;4.03;;
18174;SDS011;9212;50.894;16.714;2023-07-13T04:36:10;0.28;;;0.28;;
18174;SDS011;9212;50.894;16.714;2023-07-13T04:38:38;0.90;;;0.90;;
18174;SDS011;9212;50.894;16.714;2023-07-13T04:41:08;0.98;;;0.63;;
18174;SDS011;9212;50.894;16.714;2023-07-13T04:43:35;0.98;;;0.98;;
18174;SDS011;9212;50.894;16.714;2023-07-13T04:46:03;0.20;;;0.20;;
18174;SDS011;9212;50.894;16.714;2023-07-13T04:48:32;0.10;;;0.10;;
18174;SDS011;9212;50.894;16.714;2023-07-13T04:50:59;1.97;;;0.97;;
18174;SDS011;9212;50.894;16.714;2023-07-13T04:53:27;1.27;;;0.70;;
18174;SDS011;9212;50.894;16.714;2023-07-13T04:55:54;0.20;;;0.20;;
18174;SDS011;9212;50.894;16.714;2023-07-13T04:58:22;0.50;;;0.50;;
18174;SDS011;9212;50.894;16.714;2023-07-13T05:00:49;0.17;;;0.17;;
18174;SDS011;9212;50.894;16.714;2023-07-13T05:03:17;0.40;;;0.40;;
18174;SDS011;9212;50.894;16.714;2023-07-13T05:05:53;0.30;;;0.30;;
18174;SDS011;9212;50.894;16.714;2023-07-13T05:08:21;0.20;;;0.20;;
18174;SDS011;9212;50.894;16.714;2023-07-13T05:10:48;0.70;;;0.52;;
18174;SDS011;9212;50.894;16.714;2023-07-13T05:13:15;0.30;;;0.30;;
18174;SDS011;9212;50.894;16.714;2023-07-13T05:15:42;0.20;;;0.20;;
18174;SDS011;9212;50.894;16.714;2023-07-13T05:18:10;0.50;;;0.50;;
18174;SDS011;9212;50.894;16.714;2023-07-13T05:20:37;0.53;;;0.53;;
18174;SDS011;9212;50.894;16.714;2023-07-13T05:23:06;0.52;;;0.52;;
18174;SDS011;9212;50.894;16.714;2023-07-13T05:25:33;0.30;;;0.30;;
18174;SDS011;9212;50.894;16.714;2023-07-13T05:28:00;0.40;;;0.40;;
18174;SDS011;9212;50.894;16.714;2023-07-13T05:30:28;0.20;;;0.20;;
18174;SDS011;9212;50.894;16.714;2023-07-13T05:32:55;1.05;;;0.60;;
18174;SDS011;9212;50.894;16.714;2023-07-13T05:35:22;0.55;;;0.55;;
18174;SDS011;9212;50.894;16.714;2023-07-13T05:37:49;0.20;;;0.20;;
18174;SDS011;9212;50.894;16.714;2023-07-13T05:40:18;0.20;;;0.20;;
18174;SDS011;9212;50.894;16.714;2023-07-13T05:42:45;0.47;;;0.47;;
18174;SDS011;9212;50.894;16.714;2023-07-13T05:45:12;1.05;;;0.88;;
18174;SDS011;9212;50.894;16.714;2023-07-13T05:47:40;0.20;;;0.20;;
18174;SDS011;9212;50.894;16.714;2023-07-13T05:50:07;0.52;;;0.52;;
18174;SDS011;9212;50.894;16.714;2023-07-13T05:52:34;1.90;;;0.55;;
18174;SDS011;9212;50.894;16.714;2023-07-13T05:55:02;0.50;;;0.50;;
18174;SDS011;9212;50.894;16.714;2023-07-13T05:57:31;0.30;;;0.30;;
18174;SDS011;9212;50.894;16.714;2023-07-13T05:59:58;0.65;;;0.65;;
18174;SDS011;9212;50.894;16.714;2023-07-13T06:02:25;0.40;;;0.40;;
18174;SDS011;9212;50.894;16.714;2023-07-13T06:04:53;0.35;;;0.35;;
18174;SDS011;9212;50.894;16.714;2023-07-13T06:07:20;0.57;;;0.57;;
18174;SDS011;9212;50.894;16.714;2023-07-13T06:09:47;0.40;;;0.40;;
18174;SDS011;9212;50.894;16.714;2023-07-13T06:12:14;0.57;;;0.57;;
18174;SDS011;9212;50.894;16.714;2023-07-13T06:14:43;0.60;;;0.60;;
18174;SDS011;9212;50.894;16.714;2023-07-13T06:17:10;0.20;;;0.20;;
18174;SDS011;9212;50.894;16.714;2023-07-13T06:19:37;0.22;;;0.22;;
18174;SDS011;9212;50.894;16.714;2023-07-13T06:22:05;0.20;;;0.20;;
18174;SDS011;9212;50.894;16.714;2023-07-13T06:24:32;0.35;;;0.35;;
18174;SDS011;9212;50.894;16.714;2023-07-13T06:26:59;0.57;;;0.32;;
18174;SDS011;9212;50.894;16.714;2023-07-13T06:29:26;0.57;;;0.57;;
18174;SDS011;9212;50.894;16.714;2023-07-13T06:31:55;0.65;;;0.40;;
18174;SDS011;9212;50.894;16.714;2023-07-13T06:34:22;0.13;;;0.13;;
18174;SDS011;9212;50.894;16.714;2023-07-13T06:36:49;0.25;;;0.25;;
18174;SDS011;9212;50.894;16.714;2023-07-13T06:39:16;0.90;;;0.90;;
18174;SDS011;9212;50.894;16.714;2023-07-13T06:41:44;0.40;;;0.40;;
18174;SDS011;9212;50.894;16.714;2023-07-13T06:44:11;1.38;;;0.88;;
18174;SDS011;9212;50.894;16.714;2023-07-13T06:46:38;0.40;;;0.40;;
18174;SDS011;9212;50.894;16.714;2023-07-13T06:49:07;0.50;;;0.50;;
18174;SDS011;9212;50.894;16.714;2023-07-13T06:51:35;0.60;;;0.60;;
18174;SDS011;9212;50.894;16.714;2023-07-13T06:54:02;0.68;;;0.40;;
18174;SDS011;9212;50.894;16.714;2023-07-13T06:56:29;1.15;;;0.63;;
18174;SDS011;9212;50.894;16.714;2023-07-13T06:58:56;0.35;;;0.35;;
18174;SDS011;9212;50.894;16.714;2023-07-13T07:01:24;0.30;;;0.30;;
18174;SDS011;9212;50.894;16.714;2023-07-13T07:03:51;0.80;;;0.57;;
18174;SDS011;9212;50.894;16.714;2023-07-13T07:06:20;0.20;;;0.20;;
18174;SDS011;9212;50.894;16.714;2023-07-13T07:08:49;0.20;;;0.20;;
18174;SDS011;9212;50.894;16.714;2023-07-13T07:11:17;0.65;;;0.65;;
18174;SDS011;9212;50.894;16.714;2023-07-13T07:13:44;0.50;;;0.50;;
18174;SDS011;9212;50.894;16.714;2023-07-13T07:16:12;4.57;;;2.15;;
18174;SDS011;9212;50.894;16.714;2023-07-13T07:18:39;0.40;;;0.40;;
18174;SDS011;9212;50.894;16.714;2023-07-13T07:21:06;0.40;;;0.40;;
18174;SDS011;9212;50.894;16.714;2023-07-13T07:23:35;0.57;;;0.57;;
18174;SDS011;9212;50.894;16.714;2023-07-13T07:26:02;0.55;;;0.55;;
18174;SDS011;9212;50.894;16.714;2023-07-13T07:28:29;0.30;;;0.30;;
18174;SDS011;9212;50.894;16.714;2023-07-13T07:30:57;0.50;;;0.50;;
18174;SDS011;9212;50.894;16.714;2023-07-13T07:33:25;0.70;;;0.70;;
18174;SDS011;9212;50.894;16.714;2023-07-13T07:35:52;0.73;;;0.73;;
18174;SDS011;9212;50.894;16.714;2023-07-13T07:38:19;0.20;;;0.20;;
18174;SDS011;9212;50.894;16.714;2023-07-13T07:40:48;0.30;;;0.30;;
18174;SDS011;9212;50.894;16.714;2023-07-13T07:43:15;0.20;;;0.20;;
18174;SDS011;9212;50.894;16.714;2023-07-13T07:45:44;0.30;;;0.30;;
18174;SDS011;9212;50.894;16.714;2023-07-13T07:48:11;0.50;;;0.50;;
18174;SDS011;9212;50.894;16.714;2023-07-13T07:50:38;0.30;;;0.30;;
18174;SDS011;9212;50.894;16.714;2023-07-13T07:53:06;0.47;;;0.47;;
18174;SDS011;9212;50.894;16.714;2023-07-13T07:55:35;0.60;;;0.60;;
18174;SDS011;9212;50.894;16.714;2023-07-13T07:58:04;0.50;;;0.50;;
18174;SDS011;9212;50.894;16.714;2023-07-13T08:00:31;0.35;;;0.35;;
18174;SDS011;9212;50.894;16.714;2023-07-13T08:03:00;0.30;;;0.30;;
18174;SDS011;9212;50.894;16.714;2023-07-13T08:05:28;0.30;;;0.30;;
18174;SDS011;9212;50.894;16.714;2023-07-13T08:07:55;0.30;;;0.30;;
18174;SDS011;9212;50.894;16.714;2023-07-13T08:10:22;0.38;;;0.38;;
18174;SDS011;9212;50.894;16.714;2023-07-13T08:12:49;0.43;;;0.43;;
18174;SDS011;9212;50.894;16.714;2023-07-13T08:15:18;0.50;;;0.50;;
18174;SDS011;9212;50.894;16.714;2023-07-13T08:17:46;0.30;;;0.30;;
18174;SDS011;9212;50.894;16.714;2023-07-13T08:20:13;0.70;;;0.50;;
18174;SDS011;9212;50.894;16.714;2023-07-13T08:22:41;0.22;;;0.22;;
18174;SDS011;9212;50.894;16.714;2023-07-13T08:25:08;0.65;;;0.43;;
18174;SDS011;9212;50.894;16.714;2023-07-13T08:27:35;0.20;;;0.20;;
18174;SDS011;9212;50.894;16.714;2023-07-13T08:30:03;0.63;;;0.63;;
18174;SDS011;9212;50.894;16.714;2023-07-13T08:32:32;0.20;;;0.20;;
18174;SDS011;9212;50.894;16.714;2023-07-13T08:34:59;0.60;;;0.60;;
18174;SDS011;9212;50.894;16.714;2023-07-13T08:37:26;0.40;;;0.40;;
18174;SDS011;9212;50.894;16.714;2023-07-13T08:39:54;1.88;;;0.75;;
18174;SDS011;9212;50.894;16.714;2023-07-13T08:42:26;0.65;;;0.40;;
18174;SDS011;9212;50.894;16.714;2023-07-13T08:44:57;1.70;;;1.58;;
18174;SDS011;9212;50.894;16.714;2023-07-13T08:47:27;0.30;;;0.30;;
18174;SDS011;9212;50.894;16.714;2023-07-13T08:49:58;0.47;;;0.47;;
18174;SDS011;9212;50.894;16.714;2023-07-13T08:52:28;0.32;;;0.32;;
18174;SDS011;9212;50.894;16.714;2023-07-13T08:54:58;0.30;;;0.30;;
18174;SDS011;9212;50.894;16.714;2023-07-13T08:57:27;0.20;;;0.20;;
18174;SDS011;9212;50.894;16.714;2023-07-13T08:59:56;0.50;;;0.50;;
18174;SDS011;9212;50.894;16.714;2023-07-13T09:02:25;0.68;;;0.68;;
18174;SDS011;9212;50.894;16.714;2023-07-13T09:04:54;0.28;;;0.28;;
18174;SDS011;9212;50.894;16.714;2023-07-13T09:07:27;0.30;;;0.30;;
18174;SDS011;9212;50.894;16.714;2023-07-13T09:10:00;0.32;;;0.32;;
18174;SDS011;9212;50.894;16.714;2023-07-13T09:12:35;0.10;;;0.10;;
18174;SDS011;9212;50.894;16.714;2023-07-13T09:15:04;0.25;;;0.25;;
18174;SDS011;9212;50.894;16.714;2023-07-13T09:17:33;0.30;;;0.30;;
18174;SDS011;9212;50.894;16.714;2023-07-13T09:20:03;0.22;;;0.22;;
18174;SDS011;9212;50.894;16.714;2023-07-13T09:22:33;0.10;;;0.10;;
18174;SDS011;9212;50.894;16.714;2023-07-13T09:25:02;0.20;;;0.20;;
18174;SDS011;9212;50.894;16.714;2023-07-13T09:27:33;0.10;;;0.10;;
18174;SDS011;9212;50.894;16.714;2023-07-13T09:30:04;1.00;;;1.00;;
18174;SDS011;9212;50.894;16.714;2023-07-13T09:32:37;2.25;;;1.70;;
18174;SDS011;9212;50.894;16.714;2023-07-13T09:35:09;1.98;;;1.80;;
18174;SDS011;9212;50.894;16.714;2023-07-13T09:37:39;2.03;;;1.85;;
18174;SDS011;9212;50.894;16.714;2023-07-13T09:40:08;1.50;;;1.40;;
18174;SDS011;9212;50.894;16.714;2023-07-13T09:42:38;1.95;;;1.33;;
18174;SDS011;9212;50.894;16.714;2023-07-13T09:45:08;1.60;;;1.50;;
18174;SDS011;9212;50.894;16.714;2023-07-13T09:47:38;2.00;;;1.52;;
18174;SDS011;9212;50.894;16.714;2023-07-13T09:50:07;1.50;;;1.40;;
18174;SDS011;9212;50.894;16.714;2023-07-13T09:52:46;2.35;;;1.30;;
18174;SDS011;9212;50.894;16.714;2023-07-13T09:55:23;1.50;;;1.30;;
18174;SDS011;9212;50.894;16.714;2023-07-13T09:57:51;1.75;;;1.65;;
18174;SDS011;9212;50.894;16.714;2023-07-13T10:00:20;1.20;;;1.10;;
18174;SDS011;9212;50.894;16.714;2023-07-13T10:02:49;2.45;;;1.35;;
18174;SDS011;9212;50.894;16.714;2023-07-13T10:05:24;2.00;;;1.52;;
18174;SDS011;9212;50.894;16.714;2023-07-13T10:07:53;2.13;;;1.60;;
18174;SDS011;9212;50.894;16.714;2023-07-13T10:10:23;1.50;;;1.40;;
18174;SDS011;9212;50.894;16.714;2023-07-13T10:12:50;1.88;;;1.67;;
18174;SDS011;9212;50.894;16.714;2023-07-13T10:15:18;1.98;;;1.40;;
18174;SDS011;9212;50.894;16.714;2023-07-13T10:17:46;1.85;;;1.70;;
18174;SDS011;9212;50.894;16.714;2023-07-13T10:20:15;2.20;;;2.00;;
18174;SDS011;9212;50.894;16.714;2023-07-13T10:22:44;1.70;;;1.52;;
18174;SDS011;9212;50.894;16.714;2023-07-13T10:25:17;2.00;;;1.90;;
18174;SDS011;9212;50.894;16.714;2023-07-13T10:27:46;2.13;;;1.40;;
18174;SDS011;9212;50.894;16.714;2023-07-13T10:30:15;2.17;;;1.77;;
18174;SDS011;9212;50.894;16.714;2023-07-13T10:32:44;1.80;;;1.65;;
18174;SDS011;9212;50.894;16.714;2023-07-13T10:35:13;3.88;;;1.58;;
18174;SDS011;9212;50.894;16.714;2023-07-13T10:37:44;1.90;;;1.67;;
18174;SDS011;9212;50.894;16.714;2023-07-13T10:40:13;2.05;;;1.50;;
18174;SDS011;9212;50.894;16.714;2023-07-13T10:42:44;1.20;;;1.20;;
18174;SDS011;9212;50.894;16.714;2023-07-13T10:45:14;1.65;;;1.52;;
18174;SDS011;9212;50.894;16.714;2023-07-13T10:47:42;1.42;;;1.30;;
18174;SDS011;9212;50.894;16.714;2023-07-13T10:50:13;2.05;;;1.48;;
18174;SDS011;9212;50.894;16.714;2023-07-13T10:52:42;2.25;;;1.40;;
18174;SDS011;9212;50.894;16.714;2023-07-13T10:55:30;1.77;;;1.15;;
18174;SDS011;9212;50.894;16.714;2023-07-13T10:58:01;2.47;;;1.05;;
18174;SDS011;9212;50.894;16.714;2023-07-13T11:00:30;3.25;;;1.15;;
18174;SDS011;9212;50.894;16.714;2023-07-13T11:02:59;3.00;;;1.10;;
18174;SDS011;9212;50.894;16.714;2023-07-13T11:05:28;2.78;;;1.00;;
18174;SDS011;9212;50.894;16.714;2023-07-13T11:07:56;2.70;;;1.20;;
18174;SDS011;9212;50.894;16.714;2023-07-13T11:13:37;1.25;;;1.15;;
18174;SDS011;9212;50.894;16.714;2023-07-13T11:16:32;1.25;;;1.10;;
18174;SDS011;9212;50.894;16.714;2023-07-13T11:19:18;3.45;;;1.00;;
18174;SDS011;9212;50.894;16.714;2023-07-13T11:22:01;2.08;;;1.42;;
18174;SDS011;9212;50.894;16.714;2023-07-13T11:24:30;1.20;;;1.00;;
18174;SDS011;9212;50.894;16.714;2023-07-13T11:27:20;2.70;;;1.48;;
18174;SDS011;9212;50.894;16.714;2023-07-13T11:29:50;2.67;;;1.50;;
18174;SDS011;9212;50.894;16.714;2023-07-13T11:32:22;1.40;;;1.30;;
18174;SDS011;9212;50.894;16.714;2023-07-13T11:34:51;1.70;;;1.10;;
18174;SDS011;9212;50.894;16.714;2023-07-13T11:37:20;3.15;;;1.70;;
18174;SDS011;9212;50.894;16.714;2023-07-13T11:39:49;2.00;;;1.30;;
18174;SDS011;9212;50.894;16.714;2023-07-13T11:42:18;2.00;;;1.40;;
18174;SDS011;9212;50.894;16.714;2023-07-13T11:44:48;1.75;;;1.25;;
18174;SDS011;9212;50.894;16.714;2023-07-13T11:47:18;2.67;;;1.40;;
18174;SDS011;9212;50.894;16.714;2023-07-13T11:49:48;4.00;;;1.17;;
18174;SDS011;9212;50.894;16.714;2023-07-13T11:52:18;2.28;;;1.10;;
18174;SDS011;9212;50.894;16.714;2023-07-13T11:54:47;1.88;;;1.20;;
18174;SDS011;9212;50.894;16.714;2023-07-13T11:57:20;2.25;;;1.38;;
18174;SDS011;9212;50.894;16.714;2023-07-13T11:59:50;1.65;;;1.30;;
18174;SDS011;9212;50.894;16.714;2023-07-13T12:02:22;2.13;;;1.20;;
18174;SDS011;9212;50.894;16.714;2023-07-13T12:04:53;2.75;;;1.35;;
18174;SDS011;9212;50.894;16.714;2023-07-13T12:07:22;3.53;;;1.60;;
18174;SDS011;9212;50.894;16.714;2023-07-13T12:09:49;2.13;;;1.20;;
18174;SDS011;9212;50.894;16.714;2023-07-13T12:12:17;2.78;;;1.70;;
18174;SDS011;9212;50.894;16.714;2023-07-13T12:14:45;10.50;;;1.70;;
18174;SDS011;9212;50.894;16.714;2023-07-13T12:17:16;5.50;;;1.30;;
18174;SDS011;9212;50.894;16.714;2023-07-13T12:19:44;5.90;;;1.40;;
18174;SDS011;9212;50.894;16.714;2023-07-13T12:22:13;2.22;;;1.40;;
18174;SDS011;9212;50.894;16.714;2023-07-13T12:24:41;2.20;;;1.70;;
18174;SDS011;9212;50.894;16.714;2023-07-13T12:27:16;2.90;;;1.52;;
18174;SDS011;9212;50.894;16.714;2023-07-13T12:29:49;5.00;;;1.45;;
18174;SDS011;9212;50.894;16.714;2023-07-13T12:32:17;1.77;;;1.40;;
18174;SDS011;9212;50.894;16.714;2023-07-13T12:34:53;2.38;;;1.02;;
18174;SDS011;9212;50.894;16.714;2023-07-13T12:37:21;2.90;;;1.10;;
18174;SDS011;9212;50.894;16.714;2023-07-13T12:39:48;2.83;;;1.10;;
18174;SDS011;9212;50.894;16.714;2023-07-13T12:42:20;3.65;;;1.13;;
18174;SDS011;9212;50.894;16.714;2023-07-13T12:44:49;3.40;;;1.02;;
18174;SDS011;9212;50.894;16.714;2023-07-13T12:47:17;5.45;;;1.42;;
18174;SDS011;9212;50.894;16.714;2023-07-13T12:49:47;2.63;;;1.10;;
18174;SDS011;9212;50.894;16.714;2023-07-13T12:52:19;3.63;;;1.20;;
18174;SDS011;9212;50.894;16.714;2023-07-13T12:54:56;2.63;;;1.25;;
18174;SDS011;9212;50.894;16.714;2023-07-13T12:57:24;1.85;;;1.17;;
18174;SDS011;9212;50.894;16.714;2023-07-13T12:59:52;1.20;;;1.10;;
18174;SDS011;9212;50.894;16.714;2023-07-13T13:02:21;1.20;;;0.98;;
18174;SDS011;9212;50.894;16.714;2023-07-13T13:04:50;1.63;;;1.10;;
18174;SDS011;9212;50.894;16.714;2023-07-13T13:07:19;1.20;;;1.08;;
18174;SDS011;9212;50.894;16.714;2023-07-13T13:09:46;3.58;;;1.17;;
18174;SDS011;9212;50.894;16.714;2023-07-13T13:12:13;0.98;;;0.95;;
18174;SDS011;9212;50.894;16.714;2023-07-13T13:14:42;1.35;;;0.90;;
18174;SDS011;9212;50.894;16.714;2023-07-13T13:17:14;2.55;;;1.00;;
18174;SDS011;9212;50.894;16.714;2023-07-13T13:19:44;2.80;;;1.20;;
18174;SDS011;9212;50.894;16.714;2023-07-13T13:22:11;2.55;;;1.30;;
18174;SDS011;9212;50.894;16.714;2023-07-13T13:24:40;6.38;;;1.48;;
18174;SDS011;9212;50.894;16.714;2023-07-13T13:27:09;2.30;;;1.17;;
18174;SDS011;9212;50.894;16.714;2023-07-13T13:29:42;2.53;;;1.55;;
18174;SDS011;9212;50.894;16.714;2023-07-13T13:32:10;2.47;;;1.20;;
18174;SDS011;9212;50.894;16.714;2023-07-13T13:34:38;2.17;;;1.30;;
18174;SDS011;9212;50.894;16.714;2023-07-13T13:37:09;3.72;;;1.23;;
18174;SDS011;9212;50.894;16.714;2023-07-13T13:39:44;1.25;;;1.00;;
18174;SDS011;9212;50.894;16.714;2023-07-13T13:42:12;2.47;;;1.23;;
18174;SDS011;9212;50.894;16.714;2023-07-13T13:44:39;1.58;;;1.20;;
18174;SDS011;9212;50.894;16.714;2023-07-13T13:47:11;2.08;;;1.10;;
18174;SDS011;9212;50.894;16.714;2023-07-13T13:49:43;1.50;;;1.00;;
18174;SDS011;9212;50.894;16.714;2023-07-13T13:52:12;1.38;;;1.05;;
18174;SDS011;9212;50.894;16.714;2023-07-13T13:54:40;2.00;;;1.10;;
18174;SDS011;9212;50.894;16.714;2023-07-13T13:57:09;1.65;;;1.10;;
18174;SDS011;9212;50.894;16.714;2023-07-13T13:59:37;4.28;;;1.30;;
18174;SDS011;9212;50.894;16.714;2023-07-13T14:02:09;1.38;;;1.00;;
18174;SDS011;9212;50.894;16.714;2023-07-13T14:04:42;5.45;;;1.20;;
18174;SDS011;9212;50.894;16.714;2023-07-13T14:07:10;1.60;;;1.08;;
18174;SDS011;9212;50.894;16.714;2023-07-13T14:09:37;2.20;;;1.10;;
18174;SDS011;9212;50.894;16.714;2023-07-13T14:12:04;1.30;;;1.10;;
18174;SDS011;9212;50.894;16.714;2023-07-13T14:14:34;2.15;;;1.23;;
18174;SDS011;9212;50.894;16.714;2023-07-13T14:17:01;2.55;;;1.15;;
18174;SDS011;9212;50.894;16.714;2023-07-13T14:19:29;3.40;;;1.30;;
18174;SDS011;9212;50.894;16.714;2023-07-13T14:21:56;2.83;;;1.15;;
18174;SDS011;9212;50.894;16.714;2023-07-13T14:24:23;0.90;;;0.73;;
18174;SDS011;9212;50.894;16.714;2023-07-13T14:26:50;3.17;;;1.10;;
18174;SDS011;9212;50.894;16.714;2023-07-13T14:29:18;1.45;;;0.90;;
18174;SDS011;9212;50.894;16.714;2023-07-13T14:31:48;3.42;;;1.00;;
18174;SDS011;9212;50.894;16.714;2023-07-13T14:34:15;1.08;;;1.00;;
18174;SDS011;9212;50.894;16.714;2023-07-13T14:36:43;2.40;;;1.35;;
18174;SDS011;9212;50.894;16.714;2023-07-13T14:39:12;1.17;;;1.08;;
18174;SDS011;9212;50.894;16.714;2023-07-13T14:41:40;2.67;;;1.05;;
18174;SDS011;9212;50.894;16.714;2023-07-13T14:44:10;2.28;;;1.00;;
18174;SDS011;9212;50.894;16.714;2023-07-13T14:46:38;2.78;;;1.10;;
18174;SDS011;9212;50.894;16.714;2023-07-13T14:49:09;1.50;;;1.23;;
18174;SDS011;9212;50.894;16.714;2023-07-13T14:51:39;1.48;;;1.10;;
18174;SDS011;9212;50.894;16.714;2023-07-13T14:54:07;2.83;;;1.23;;
18174;SDS011;9212;50.894;16.714;2023-07-13T14:56:35;1.65;;;1.10;;
18174;SDS011;9212;50.894;16.714;2023-07-13T14:59:02;4.45;;;1.00;;
18174;SDS011;9212;50.894;16.714;2023-07-13T15:01:30;1.77;;;1.02;;